sensor_id;sensor_type;location;lat;lon;timestamp;pressure;altitude;pressure_sealevel;temperature;humidity
78509;BME280;67802;50.846;7.958;2023-05-25T00:00:37;98601.25;;;20.58;35.16
78509;BME280;67802;50.846;7.958;2023-05-25T00:03:02;98597.66;;;20.59;35.12
78509;BME280;67802;50.846;7.958;2023-05-25T00:05:28;98602.81;;;20.61;34.90
78509;BME280;67802;50.846;7.958;2023-05-25T00:07:54;98594.88;;;20.61;35.22
78509;BME280;67802;50.846;7.958;2023-05-25T00:10:19;98601.75;;;20.64;35.18
78509;BME280;67802;50.846;7.958;2023-05-25T00:12:45;98601.75;;;20.64;35.20
78509;BME280;67802;50.846;7.958;2023-05-25T00:15:10;98601.75;;;20.64;34.97
78509;BME280;67802;50.846;7.958;2023-05-25T00:17:35;98591.19;;;20.64;35.10
78509;BME280;67802;50.846;7.958;2023-05-25T00:20:02;98598.16;;;20.65;35.07
78509;BME280;67802;50.846;7.958;2023-05-25T00:22:42;98594.56;;;20.66;35.02
78509;BME280;67802;50.846;7.958;2023-05-25T00:25:09;98595.53;;;20.65;35.06
78509;BME280;67802;50.846;7.958;2023-05-25T00:27:34;98596.47;;;20.64;35.08
78509;BME280;67802;50.846;7.958;2023-05-25T00:29:59;98591.19;;;20.64;35.05
78509;BME280;67802;50.846;7.958;2023-05-25T00:32:25;98596.47;;;20.64;35.03
78509;BME280;67802;50.846;7.958;2023-05-25T00:34:50;98589.50;;;20.63;35.13
78509;BME280;67802;50.846;7.958;2023-05-25T00:37:15;98588.66;;;20.62;35.08
78509;BME280;67802;50.846;7.958;2023-05-25T00:39:41;98589.50;;;20.63;35.12
78509;BME280;67802;50.846;7.958;2023-05-25T00:42:06;98596.56;;;20.62;34.97
78509;BME280;67802;50.846;7.958;2023-05-25T00:44:32;98592.25;;;20.61;34.96
78509;BME280;67802;50.846;7.958;2023-05-25T00:46:58;98591.41;;;20.60;34.93
78509;BME280;67802;50.846;7.958;2023-05-25T00:49:24;98594.06;;;20.60;34.97
78509;BME280;67802;50.846;7.958;2023-05-25T00:51:51;98591.41;;;20.60;34.85
78509;BME280;67802;50.846;7.958;2023-05-25T00:54:17;98587.81;;;20.61;34.78
78509;BME280;67802;50.846;7.958;2023-05-25T00:56:46;98582.53;;;20.61;34.74
78509;BME280;67802;50.846;7.958;2023-05-25T00:59:18;98585.91;;;20.64;34.54
78509;BME280;67802;50.846;7.958;2023-05-25T01:01:45;98584.97;;;20.65;34.71
78509;BME280;67802;50.846;7.958;2023-05-25T01:04:14;98591.81;;;20.67;34.52
78509;BME280;67802;50.846;7.958;2023-05-25T01:06:43;98582.06;;;20.68;34.73
78509;BME280;67802;50.846;7.958;2023-05-25T01:09:15;98581.97;;;20.69;34.63
78509;BME280;67802;50.846;7.958;2023-05-25T01:11:42;98585.44;;;20.70;34.59
78509;BME280;67802;50.846;7.958;2023-05-25T01:14:08;98592.41;;;20.71;34.53
78509;BME280;67802;50.846;7.958;2023-05-25T01:16:35;98582.56;;;20.73;34.62
78509;BME280;67802;50.846;7.958;2023-05-25T01:19:02;98581.63;;;20.74;34.45
78509;BME280;67802;50.846;7.958;2023-05-25T01:24:01;98587.56;;;20.78;34.55
78509;BME280;67802;50.846;7.958;2023-05-25T01:26:31;98590.09;;;20.79;34.47
78509;BME280;67802;50.846;7.958;2023-05-25T01:29:00;98586.50;;;20.80;34.56
78509;BME280;67802;50.846;7.958;2023-05-25T01:31:26;98585.66;;;20.80;34.36
78509;BME280;67802;50.846;7.958;2023-05-25T01:33:52;98581.22;;;20.80;34.52
78509;BME280;67802;50.846;7.958;2023-05-25T01:36:19;98578.56;;;20.80;34.59
78509;BME280;67802;50.846;7.958;2023-05-25T01:38:45;98585.66;;;20.80;34.54
78509;BME280;67802;50.846;7.958;2023-05-25T01:41:10;98584.81;;;20.79;34.43
78509;BME280;67802;50.846;7.958;2023-05-25T01:43:35;98587.44;;;20.79;34.51
78509;BME280;67802;50.846;7.958;2023-05-25T01:46:14;98586.72;;;20.77;34.38
78509;BME280;67802;50.846;7.958;2023-05-25T01:48:52;98585.00;;;20.76;34.51
78509;BME280;67802;50.846;7.958;2023-05-25T01:51:28;98590.28;;;20.76;34.43
78509;BME280;67802;50.846;7.958;2023-05-25T01:54:08;98590.28;;;20.76;34.45
78509;BME280;67802;50.846;7.958;2023-05-25T01:56:36;98592.91;;;20.76;34.32
78509;BME280;67802;50.846;7.958;2023-05-25T01:59:02;98589.34;;;20.77;34.27
78509;BME280;67802;50.846;7.958;2023-05-25T02:01:32;98576.16;;;20.77;34.35
78509;BME280;67802;50.846;7.958;2023-05-25T02:03:59;98579.53;;;20.79;34.18
78509;BME280;67802;50.846;7.958;2023-05-25T02:06:24;98587.34;;;20.81;34.14
78509;BME280;67802;50.846;7.958;2023-05-25T02:08:50;98591.53;;;20.83;34.32
78509;BME280;67802;50.846;7.958;2023-05-25T02:11:15;98588.91;;;20.83;34.25
78509;BME280;67802;50.846;7.958;2023-05-25T02:13:41;98590.50;;;20.86;34.01
78509;BME280;67802;50.846;7.958;2023-05-25T02:16:06;98593.00;;;20.87;34.21
78509;BME280;67802;50.846;7.958;2023-05-25T02:18:32;98596.38;;;20.89;34.17
78509;BME280;67802;50.846;7.958;2023-05-25T02:20:58;98587.50;;;20.90;34.08
78509;BME280;67802;50.846;7.958;2023-05-25T02:23:23;98595.31;;;20.92;34.11
78509;BME280;67802;50.846;7.958;2023-05-25T02:25:49;98588.22;;;20.93;34.16
78509;BME280;67802;50.846;7.958;2023-05-25T02:28:16;98592.56;;;20.94;34.07
78509;BME280;67802;50.846;7.958;2023-05-25T02:30:41;98582.00;;;20.94;34.20
78509;BME280;67802;50.846;7.958;2023-05-25T02:33:06;98586.41;;;20.93;34.05
78509;BME280;67802;50.846;7.958;2023-05-25T02:35:32;98587.28;;;20.94;34.09
78509;BME280;67802;50.846;7.958;2023-05-25T02:37:57;98587.28;;;20.94;33.88
78509;BME280;67802;50.846;7.958;2023-05-25T02:40:23;98585.59;;;20.93;33.90
78509;BME280;67802;50.846;7.958;2023-05-25T02:42:48;98589.19;;;20.92;34.16
78509;BME280;67802;50.846;7.958;2023-05-25T02:45:13;98590.16;;;20.90;34.13
78509;BME280;67802;50.846;7.958;2023-05-25T02:47:39;98591.09;;;20.89;33.88
78509;BME280;67802;50.846;7.958;2023-05-25T02:50:05;98586.78;;;20.88;34.02
78509;BME280;67802;50.846;7.958;2023-05-25T02:52:31;98592.19;;;20.87;33.94
78509;BME280;67802;50.846;7.958;2023-05-25T02:54:56;98597.56;;;20.85;33.90
78509;BME280;67802;50.846;7.958;2023-05-25T02:57:22;98595.88;;;20.84;33.80
78509;BME280;67802;50.846;7.958;2023-05-25T02:59:48;98598.50;;;20.84;33.72
78509;BME280;67802;50.846;7.958;2023-05-25T03:02:14;98596.72;;;20.85;33.81
78509;BME280;67802;50.846;7.958;2023-05-25T03:04:45;98589.63;;;20.85;33.65
78509;BME280;67802;50.846;7.958;2023-05-25T03:07:11;98596.50;;;20.88;33.77
78509;BME280;67802;50.846;7.958;2023-05-25T03:09:36;98601.66;;;20.89;33.75
78509;BME280;67802;50.846;7.958;2023-05-25T03:12:02;98601.56;;;20.91;33.78
78509;BME280;67802;50.846;7.958;2023-05-25T03:14:27;98596.16;;;20.93;33.91
78509;BME280;67802;50.846;7.958;2023-05-25T03:16:53;98597.84;;;20.94;33.50
78509;BME280;67802;50.846;7.958;2023-05-25T03:19:18;98601.22;;;20.96;33.56
78509;BME280;67802;50.846;7.958;2023-05-25T03:21:45;98605.41;;;20.98;33.60
78509;BME280;67802;50.846;7.958;2023-05-25T03:24:11;98614.06;;;21.00;33.62
78509;BME280;67802;50.846;7.958;2023-05-25T03:26:36;98610.47;;;21.01;33.73
78509;BME280;67802;50.846;7.958;2023-05-25T03:29:01;98606.03;;;21.02;33.36
78509;BME280;67802;50.846;7.958;2023-05-25T03:31:27;98619.97;;;21.04;33.61
78509;BME280;67802;50.846;7.958;2023-05-25T03:33:52;98615.53;;;21.04;33.54
78509;BME280;67802;50.846;7.958;2023-05-25T03:36:17;98621.66;;;21.05;33.48
78509;BME280;67802;50.846;7.958;2023-05-25T03:38:43;98621.66;;;21.05;33.52
78509;BME280;67802;50.846;7.958;2023-05-25T03:41:08;98621.66;;;21.05;33.67
78509;BME280;67802;50.846;7.958;2023-05-25T03:43:34;98621.66;;;21.05;33.53
78509;BME280;67802;50.846;7.958;2023-05-25T03:45:59;98626.94;;;21.05;33.46
78509;BME280;67802;50.846;7.958;2023-05-25T03:48:25;98634.16;;;21.03;33.51
78509;BME280;67802;50.846;7.958;2023-05-25T03:50:50;98629.81;;;21.02;33.49
78509;BME280;67802;50.846;7.958;2023-05-25T03:53:15;98630.78;;;21.01;33.47
78509;BME280;67802;50.846;7.958;2023-05-25T03:55:41;98634.38;;;21.00;33.48
78509;BME280;67802;50.846;7.958;2023-05-25T03:58:06;98627.41;;;20.99;33.36
78509;BME280;67802;50.846;7.958;2023-05-25T04:00:34;98630.03;;;20.99;33.37
78509;BME280;67802;50.846;7.958;2023-05-25T04:03:00;98627.41;;;20.99;33.45
78509;BME280;67802;50.846;7.958;2023-05-25T04:05:25;98631.72;;;21.00;33.60
78509;BME280;67802;50.846;7.958;2023-05-25T04:07:50;98631.59;;;21.01;33.28
78509;BME280;67802;50.846;7.958;2023-05-25T04:10:16;98640.25;;;21.03;33.52
78509;BME280;67802;50.846;7.958;2023-05-25T04:12:41;98632.22;;;21.05;33.25
78509;BME280;67802;50.846;7.958;2023-05-25T04:15:07;98631.06;;;21.09;33.09
78509;BME280;67802;50.846;7.958;2023-05-25T04:17:34;98623.72;;;21.13;33.49
78509;BME280;67802;50.846;7.958;2023-05-25T04:20:00;98631.34;;;21.17;33.21
78509;BME280;67802;50.846;7.958;2023-05-25T04:22:26;98633.63;;;21.22;33.11
78509;BME280;67802;50.846;7.958;2023-05-25T04:24:51;98639.50;;;21.26;33.07
78509;BME280;67802;50.846;7.958;2023-05-25T04:27:16;98640.97;;;21.30;33.03
78509;BME280;67802;50.846;7.958;2023-05-25T04:29:42;98651.31;;;21.33;32.67
78509;BME280;67802;50.846;7.958;2023-05-25T04:32:07;98657.22;;;21.37;32.94
78509;BME280;67802;50.846;7.958;2023-05-25T04:34:33;98650.03;;;21.39;32.61
78509;BME280;67802;50.846;7.958;2023-05-25T04:37:00;98643.66;;;21.41;32.53
78509;BME280;67802;50.846;7.958;2023-05-25T04:39:29;98647.03;;;21.43;32.48
78509;BME280;67802;50.846;7.958;2023-05-25T04:41:55;98656.63;;;21.44;32.32
78509;BME280;67802;50.846;7.958;2023-05-25T04:44:21;98652.06;;;21.46;32.29
78509;BME280;67802;50.846;7.958;2023-05-25T04:46:48;98651.94;;;21.48;32.29
78509;BME280;67802;50.846;7.958;2023-05-25T04:49:13;98662.19;;;21.53;32.25
78509;BME280;67802;50.846;7.958;2023-05-25T04:51:39;98652.56;;;21.52;32.33
78509;BME280;67802;50.846;7.958;2023-05-25T04:54:04;98663.03;;;21.53;32.09
78509;BME280;67802;50.846;7.958;2023-05-25T04:56:30;98668.31;;;21.53;32.29
78509;BME280;67802;50.846;7.958;2023-05-25T04:58:55;98677.09;;;21.54;32.32
78509;BME280;67802;50.846;7.958;2023-05-25T05:01:20;98678.06;;;21.53;32.26
78509;BME280;67802;50.846;7.958;2023-05-25T05:03:46;98688.63;;;21.53;32.08
78509;BME280;67802;50.846;7.958;2023-05-25T05:06:11;98687.44;;;21.57;32.37
78509;BME280;67802;50.846;7.958;2023-05-25T05:08:36;98690.81;;;21.59;32.18
78509;BME280;67802;50.846;7.958;2023-05-25T05:11:02;98688.91;;;21.61;32.12
78509;BME280;67802;50.846;7.958;2023-05-25T05:13:27;98689.66;;;21.63;32.26
78509;BME280;67802;50.846;7.958;2023-05-25T05:15:52;98691.34;;;21.64;32.23
78509;BME280;67802;50.846;7.958;2023-05-25T05:18:18;98687.75;;;21.65;32.33
78509;BME280;67802;50.846;7.958;2023-05-25T05:20:44;98695.53;;;21.67;32.48
78509;BME280;67802;50.846;7.958;2023-05-25T05:23:10;98698.19;;;21.67;32.42
78509;BME280;67802;50.846;7.958;2023-05-25T05:25:35;98694.59;;;21.68;32.48
78509;BME280;67802;50.846;7.958;2023-05-25T05:28:02;98697.22;;;21.68;32.21
78509;BME280;67802;50.846;7.958;2023-05-25T05:30:27;98703.38;;;21.68;32.33
78509;BME280;67802;50.846;7.958;2023-05-25T05:32:52;98698.91;;;21.69;32.38
78509;BME280;67802;50.846;7.958;2023-05-25T05:35:18;98709.41;;;21.70;32.38
78509;BME280;67802;50.846;7.958;2023-05-25T05:37:43;98712.13;;;21.69;32.48
78509;BME280;67802;50.846;7.958;2023-05-25T05:40:10;98718.16;;;21.71;32.52
78509;BME280;67802;50.846;7.958;2023-05-25T05:42:35;98719.84;;;21.72;32.33
78509;BME280;67802;50.846;7.958;2023-05-25T05:45:01;98717.06;;;21.73;32.40
78509;BME280;67802;50.846;7.958;2023-05-25T05:47:26;98716.00;;;21.76;32.48
78509;BME280;67802;50.846;7.958;2023-05-25T05:49:51;98712.28;;;21.78;32.34
78509;BME280;67802;50.846;7.958;2023-05-25T05:52:17;98723.50;;;21.82;32.37
78509;BME280;67802;50.846;7.958;2023-05-25T05:54:42;98719.75;;;21.85;32.31
78509;BME280;67802;50.846;7.958;2023-05-25T05:57:07;98730.09;;;21.88;32.48
78509;BME280;67802;50.846;7.958;2023-05-25T05:59:33;98735.16;;;21.91;32.44
78509;BME280;67802;50.846;7.958;2023-05-25T06:01:58;98728.81;;;21.93;32.46
78509;BME280;67802;50.846;7.958;2023-05-25T06:04:23;98732.19;;;21.96;32.53
78509;BME280;67802;50.846;7.958;2023-05-25T06:06:52;98731.97;;;21.99;32.34
78509;BME280;67802;50.846;7.958;2023-05-25T06:09:18;98730.88;;;22.01;32.06
78509;BME280;67802;50.846;7.958;2023-05-25T06:11:43;98745.66;;;22.04;32.14
78509;BME280;67802;50.846;7.958;2023-05-25T06:14:08;98734.00;;;22.06;32.38
78509;BME280;67802;50.846;7.958;2023-05-25T06:16:34;98739.06;;;22.09;32.16
78509;BME280;67802;50.846;7.958;2023-05-25T06:19:00;98746.03;;;22.11;32.49
78509;BME280;67802;50.846;7.958;2023-05-25T06:21:25;98742.31;;;22.13;32.17
78509;BME280;67802;50.846;7.958;2023-05-25T06:23:51;98748.44;;;22.14;32.52
78509;BME280;67802;50.846;7.958;2023-05-25T06:26:16;98748.22;;;22.17;32.34
78509;BME280;67802;50.846;7.958;2023-05-25T06:28:41;98743.66;;;22.19;32.62
78509;BME280;67802;50.846;7.958;2023-05-25T06:31:07;98747.03;;;22.21;32.39
78509;BME280;67802;50.846;7.958;2023-05-25T06:33:32;98752.19;;;22.22;32.52
78509;BME280;67802;50.846;7.958;2023-05-25T06:35:57;98757.38;;;22.24;32.32
78509;BME280;67802;50.846;7.958;2023-05-25T06:38:25;98745.84;;;22.25;32.15
78509;BME280;67802;50.846;7.958;2023-05-25T06:40:51;98753.78;;;22.25;32.35
78509;BME280;67802;50.846;7.958;2023-05-25T06:43:16;98758.94;;;22.27;32.78
78509;BME280;67802;50.846;7.958;2023-05-25T06:45:41;98745.69;;;22.27;32.43
78509;BME280;67802;50.846;7.958;2023-05-25T06:48:06;98746.53;;;22.27;32.68
78509;BME280;67802;50.846;7.958;2023-05-25T06:50:32;98753.50;;;22.28;32.51
78509;BME280;67802;50.846;7.958;2023-05-25T06:52:57;98749.06;;;22.29;32.41
78509;BME280;67802;50.846;7.958;2023-05-25T06:55:22;98751.59;;;22.30;32.33
78509;BME280;67802;50.846;7.958;2023-05-25T06:57:48;98753.41;;;22.30;32.35
78509;BME280;67802;50.846;7.958;2023-05-25T07:00:13;98751.59;;;22.30;32.58
78509;BME280;67802;50.846;7.958;2023-05-25T07:02:39;98746.28;;;22.30;32.59
78509;BME280;67802;50.846;7.958;2023-05-25T07:05:05;98747.97;;;22.31;32.46
78509;BME280;67802;50.846;7.958;2023-05-25T07:07:31;98750.63;;;22.31;32.88
78509;BME280;67802;50.846;7.958;2023-05-25T07:09:56;98750.63;;;22.31;32.51
78509;BME280;67802;50.846;7.958;2023-05-25T07:12:22;98740.03;;;22.31;32.64
78509;BME280;67802;50.846;7.958;2023-05-25T07:14:47;98745.31;;;22.31;32.91
78509;BME280;67802;50.846;7.958;2023-05-25T07:17:13;98745.22;;;22.33;32.85
78509;BME280;67802;50.846;7.958;2023-05-25T07:19:38;98748.69;;;22.33;32.93
78509;BME280;67802;50.846;7.958;2023-05-25T07:22:06;98747.75;;;22.34;32.84
78509;BME280;67802;50.846;7.958;2023-05-25T07:24:31;98737.16;;;22.34;32.74
78509;BME280;67802;50.846;7.958;2023-05-25T07:26:57;98747.75;;;22.34;32.98
78509;BME280;67802;50.846;7.958;2023-05-25T07:29:22;98739.69;;;22.36;33.05
78509;BME280;67802;50.846;7.958;2023-05-25T07:31:47;98744.13;;;22.35;33.00
78509;BME280;67802;50.846;7.958;2023-05-25T07:34:13;98743.16;;;22.36;33.04
78509;BME280;67802;50.846;7.958;2023-05-25T07:36:39;98744.03;;;22.37;33.07
78509;BME280;67802;50.846;7.958;2023-05-25T07:39:04;98743.91;;;22.38;33.22
78509;BME280;67802;50.846;7.958;2023-05-25T07:41:30;98744.63;;;22.41;32.90
78509;BME280;67802;50.846;7.958;2023-05-25T07:43:55;98738.84;;;22.35;33.34
78509;BME280;67802;50.846;7.958;2023-05-25T07:46:20;98743.78;;;22.29;33.38
78509;BME280;67802;50.846;7.958;2023-05-25T07:48:49;98754.00;;;22.22;33.08
78509;BME280;67802;50.846;7.958;2023-05-25T07:51:14;98750.00;;;22.16;33.16
78509;BME280;67802;50.846;7.958;2023-05-25T07:53:40;98749.19;;;22.16;33.33
78509;BME280;67802;50.846;7.958;2023-05-25T07:56:06;98748.09;;;22.18;33.22
78509;BME280;67802;50.846;7.958;2023-05-25T07:58:32;98746.78;;;22.24;32.88
78509;BME280;67802;50.846;7.958;2023-05-25T08:00:57;98750.03;;;22.28;33.00
78509;BME280;67802;50.846;7.958;2023-05-25T08:03:22;98744.59;;;22.29;33.24
78509;BME280;67802;50.846;7.958;2023-05-25T08:05:48;98746.78;;;22.24;33.35
78509;BME280;67802;50.846;7.958;2023-05-25T08:08:13;98755.94;;;22.20;33.33
78509;BME280;67802;50.846;7.958;2023-05-25T08:10:39;98745.81;;;22.14;33.24
78509;BME280;67802;50.846;7.958;2023-05-25T08:13:04;98751.34;;;22.11;33.69
78509;BME280;67802;50.846;7.958;2023-05-25T08:15:29;98746.28;;;22.07;33.74
78509;BME280;67802;50.846;7.958;2023-05-25T08:17:55;98753.47;;;22.05;33.65
78509;BME280;67802;50.846;7.958;2023-05-25T08:20:20;98744.81;;;22.03;33.41
78509;BME280;67802;50.846;7.958;2023-05-25T08:22:47;98743.00;;;22.04;33.58
78509;BME280;67802;50.846;7.958;2023-05-25T08:25:13;98740.97;;;22.07;33.47
78509;BME280;67802;50.846;7.958;2023-05-25T08:27:39;98739.06;;;22.09;33.43
78509;BME280;67802;50.846;7.958;2023-05-25T08:30:04;98742.44;;;22.12;33.46
78509;BME280;67802;50.846;7.958;2023-05-25T08:32:30;98746.88;;;22.11;32.94
78509;BME280;67802;50.846;7.958;2023-05-25T08:34:55;98747.00;;;22.09;32.96
78509;BME280;67802;50.846;7.958;2023-05-25T08:37:21;98740.97;;;22.07;32.97
78509;BME280;67802;50.846;7.958;2023-05-25T08:39:48;98739.53;;;22.03;32.87
78509;BME280;67802;50.846;7.958;2023-05-25T08:42:14;98741.69;;;21.98;32.56
78509;BME280;67802;50.846;7.958;2023-05-25T08:44:39;98742.13;;;21.92;32.77
78509;BME280;67802;50.846;7.958;2023-05-25T08:47:06;98741.63;;;21.87;33.13
78509;BME280;67802;50.846;7.958;2023-05-25T08:49:38;98740.91;;;21.85;32.93
78509;BME280;67802;50.846;7.958;2023-05-25T08:52:04;98739.34;;;21.82;33.00
78509;BME280;67802;50.846;7.958;2023-05-25T08:54:34;98740.31;;;21.81;33.29
78509;BME280;67802;50.846;7.958;2023-05-25T08:57:19;98734.16;;;21.81;33.17
78509;BME280;67802;50.846;7.958;2023-05-25T09:00:30;98736.81;;;21.81;33.42
78509;BME280;67802;50.846;7.958;2023-05-25T09:05:32;98740.31;;;21.81;33.37
78509;BME280;67802;50.846;7.958;2023-05-25T09:07:58;98732.38;;;21.81;33.40
78509;BME280;67802;50.846;7.958;2023-05-25T09:10:24;98734.16;;;21.81;33.39
78509;BME280;67802;50.846;7.958;2023-05-25T09:12:52;98730.69;;;21.80;33.47
78509;BME280;67802;50.846;7.958;2023-05-25T09:15:18;98728.06;;;21.80;33.63
78509;BME280;67802;50.846;7.958;2023-05-25T09:17:43;98725.50;;;21.78;33.58
78509;BME280;67802;50.846;7.958;2023-05-25T09:20:09;98730.78;;;21.78;34.00
78509;BME280;67802;50.846;7.958;2023-05-25T09:22:35;98728.38;;;21.75;33.65
78509;BME280;67802;50.846;7.958;2023-05-25T09:25:05;98729.38;;;21.61;33.56
78509;BME280;67802;50.846;7.958;2023-05-25T09:27:34;98729.75;;;21.57;33.94
78509;BME280;67802;50.846;7.958;2023-05-25T09:30:00;98739.13;;;21.61;33.93
78509;BME280;67802;50.846;7.958;2023-05-25T09:32:26;98732.78;;;21.63;33.73
78509;BME280;67802;50.846;7.958;2023-05-25T09:34:52;98726.44;;;21.66;33.85
78509;BME280;67802;50.846;7.958;2023-05-25T09:37:20;98728.97;;;21.68;33.72
78509;BME280;67802;50.846;7.958;2023-05-25T09:39:46;98730.56;;;21.70;33.28
78509;BME280;67802;50.846;7.958;2023-05-25T09:42:14;98728.72;;;21.71;33.29
78509;BME280;67802;50.846;7.958;2023-05-25T09:44:39;98731.50;;;21.69;33.14
78509;BME280;67802;50.846;7.958;2023-05-25T09:47:06;98729.38;;;21.61;32.99
78509;BME280;67802;50.846;7.958;2023-05-25T09:49:32;98729.63;;;21.58;33.19
78509;BME280;67802;50.846;7.958;2023-05-25T09:51:59;98733.22;;;21.57;33.12
78509;BME280;67802;50.846;7.958;2023-05-25T09:54:24;98733.34;;;21.56;33.40
78509;BME280;67802;50.846;7.958;2023-05-25T09:56:50;98728.78;;;21.58;33.57
78509;BME280;67802;50.846;7.958;2023-05-25T09:59:16;98735.03;;;21.57;33.60
78509;BME280;67802;50.846;7.958;2023-05-25T10:01:41;98730.47;;;21.59;33.58
78509;BME280;67802;50.846;7.958;2023-05-25T10:04:08;98738.28;;;21.60;33.73
78509;BME280;67802;50.846;7.958;2023-05-25T10:06:33;98733.66;;;21.64;33.92
78509;BME280;67802;50.846;7.958;2023-05-25T10:09:00;98728.22;;;21.66;33.84
78509;BME280;67802;50.846;7.958;2023-05-25T10:11:26;98732.47;;;21.68;33.97
78509;BME280;67802;50.846;7.958;2023-05-25T10:13:53;98735.84;;;21.70;33.77
78509;BME280;67802;50.846;7.958;2023-05-25T10:16:23;98729.59;;;21.71;33.80
78509;BME280;67802;50.846;7.958;2023-05-25T10:19:13;98732.09;;;21.73;33.94
78509;BME280;67802;50.846;7.958;2023-05-25T10:21:46;98729.34;;;21.74;34.12
78509;BME280;67802;50.846;7.958;2023-05-25T10:24:25;98730.78;;;21.78;34.15
78509;BME280;67802;50.846;7.958;2023-05-25T10:26:58;98731.66;;;21.79;33.91
78509;BME280;67802;50.846;7.958;2023-05-25T10:29:26;98732.47;;;21.79;33.88
78509;BME280;67802;50.846;7.958;2023-05-25T10:31:52;98735.03;;;21.81;34.10
78509;BME280;67802;50.846;7.958;2023-05-25T10:34:19;98728.66;;;21.84;34.20
78509;BME280;67802;50.846;7.958;2023-05-25T10:36:44;98737.31;;;21.86;34.47
78509;BME280;67802;50.846;7.958;2023-05-25T10:39:10;98729.38;;;21.86;34.02
78509;BME280;67802;50.846;7.958;2023-05-25T10:41:36;98731.78;;;21.89;34.40
78509;BME280;67802;50.846;7.958;2023-05-25T10:44:01;98733.38;;;21.91;34.25
78509;BME280;67802;50.846;7.958;2023-05-25T10:46:27;98733.25;;;21.93;34.27
78509;BME280;67802;50.846;7.958;2023-05-25T10:48:53;98734.94;;;21.94;34.06
78509;BME280;67802;50.846;7.958;2023-05-25T10:51:38;98736.63;;;21.95;34.22
78509;BME280;67802;50.846;7.958;2023-05-25T10:54:04;98728.69;;;21.95;34.09
78509;BME280;67802;50.846;7.958;2023-05-25T10:56:30;98725.06;;;21.96;34.13
78509;BME280;67802;50.846;7.958;2023-05-25T10:58:55;98722.44;;;21.96;34.24
78509;BME280;67802;50.846;7.958;2023-05-25T11:01:21;98715.47;;;21.95;34.29
78509;BME280;67802;50.846;7.958;2023-05-25T11:03:49;98717.13;;;21.96;34.30
78509;BME280;67802;50.846;7.958;2023-05-25T11:06:16;98717.13;;;21.96;34.46
78509;BME280;67802;50.846;7.958;2023-05-25T11:08:56;98715.47;;;21.95;34.46
78509;BME280;67802;50.846;7.958;2023-05-25T11:17:12;98720.72;;;21.84;34.16
78509;BME280;67802;50.846;7.958;2023-05-25T11:19:45;98712.63;;;21.74;34.35
78509;BME280;67802;50.846;7.958;2023-05-25T11:22:16;98713.97;;;21.68;34.63
78509;BME280;67802;50.846;7.958;2023-05-25T11:24:44;98706.03;;;21.68;34.60
78509;BME280;67802;50.846;7.958;2023-05-25T11:27:10;98712.03;;;21.70;34.51
78509;BME280;67802;50.846;7.958;2023-05-25T11:29:36;98710.34;;;21.69;34.28
78509;BME280;67802;50.846;7.958;2023-05-25T11:32:02;98708.03;;;21.64;34.31
78509;BME280;67802;50.846;7.958;2023-05-25T11:34:29;98695.91;;;21.62;34.55
78509;BME280;67802;50.846;7.958;2023-05-25T11:36:55;98705.53;;;21.63;34.75
78509;BME280;67802;50.846;7.958;2023-05-25T11:39:22;98699.28;;;21.64;34.82
78509;BME280;67802;50.846;7.958;2023-05-25T11:41:51;98693.88;;;21.66;34.85
78509;BME280;67802;50.846;7.958;2023-05-25T11:44:27;98700.75;;;21.68;34.84
78509;BME280;67802;50.846;7.958;2023-05-25T11:46:54;98688.34;;;21.69;34.81
78509;BME280;67802;50.846;7.958;2023-05-25T11:49:23;98685.59;;;21.70;34.72
78509;BME280;67802;50.846;7.958;2023-05-25T11:51:49;98688.13;;;21.72;34.86
78509;BME280;67802;50.846;7.958;2023-05-25T11:54:26;98684.38;;;21.74;34.91
78509;BME280;67802;50.846;7.958;2023-05-25T11:56:53;98692.44;;;21.73;34.87
78509;BME280;67802;50.846;7.958;2023-05-25T11:59:21;98688.97;;;21.72;34.79
78509;BME280;67802;50.846;7.958;2023-05-25T12:01:56;98684.38;;;21.63;34.86
78509;BME280;67802;50.846;7.958;2023-05-25T12:04:22;98689.34;;;21.55;34.87
78509;BME280;67802;50.846;7.958;2023-05-25T12:06:47;98694.38;;;21.46;35.24
78509;BME280;67802;50.846;7.958;2023-05-25T12:09:18;98696.28;;;21.44;35.40
78509;BME280;67802;50.846;7.958;2023-05-25T12:11:45;98687.41;;;21.45;35.25
78509;BME280;67802;50.846;7.958;2023-05-25T12:14:10;98687.41;;;21.45;35.15
78509;BME280;67802;50.846;7.958;2023-05-25T12:16:36;98687.41;;;21.45;35.06
78509;BME280;67802;50.846;7.958;2023-05-25T12:19:09;98680.44;;;21.44;35.37
78509;BME280;67802;50.846;7.958;2023-05-25T12:21:36;98678.75;;;21.43;35.17
78509;BME280;67802;50.846;7.958;2023-05-25T12:24:02;98674.53;;;21.41;35.23
78509;BME280;67802;50.846;7.958;2023-05-25T12:26:28;98680.66;;;21.41;35.13
78509;BME280;67802;50.846;7.958;2023-05-25T12:29:01;98676.44;;;21.39;35.18
78509;BME280;67802;50.846;7.958;2023-05-25T12:31:29;98680.06;;;21.38;35.06
78509;BME280;67802;50.846;7.958;2023-05-25T12:34:02;98682.78;;;21.36;35.15
78509;BME280;67802;50.846;7.958;2023-05-25T12:36:50;98676.56;;;21.37;35.20
78509;BME280;67802;50.846;7.958;2023-05-25T12:39:18;98680.16;;;21.36;35.19
78509;BME280;67802;50.846;7.958;2023-05-25T12:41:57;98682.91;;;21.34;35.21
78509;BME280;67802;50.846;7.958;2023-05-25T12:44:33;98683.97;;;21.32;35.25
78509;BME280;67802;50.846;7.958;2023-05-25T12:47:20;98681.47;;;21.30;35.24
78509;BME280;67802;50.846;7.958;2023-05-25T12:49:48;98674.59;;;21.28;35.50
78509;BME280;67802;50.846;7.958;2023-05-25T12:55:27;98675.53;;;21.27;35.35
78509;BME280;67802;50.846;7.958;2023-05-25T12:57:57;98671.22;;;21.26;35.36
78509;BME280;67802;50.846;7.958;2023-05-25T13:02:56;98678.41;;;21.24;35.50
78509;BME280;67802;50.846;7.958;2023-05-25T13:05:29;98673.13;;;21.24;35.51
78509;BME280;67802;50.846;7.958;2023-05-25T13:07:56;98680.31;;;21.22;35.58
78509;BME280;67802;50.846;7.958;2023-05-25T13:10:22;98669.75;;;21.22;35.51
78509;BME280;67802;50.846;7.958;2023-05-25T13:12:49;98672.53;;;21.20;35.69
78509;BME280;67802;50.846;7.958;2023-05-25T13:15:17;98669.88;;;21.20;35.79